createdAt,value
2023-04-21T00:02:21.801Z,96.15
2023-04-21T00:05:44.952Z,96.67
2023-04-21T00:12:11.921Z,96.87
2023-04-21T00:14:58.050Z,97.10
2023-04-21T00:17:35.422Z,97.12
2023-04-21T00:20:14.933Z,96.83
2023-04-21T00:22:52.014Z,96.65
2023-04-21T00:25:28.606Z,96.68
2023-04-21T00:28:11.070Z,96.14
2023-04-21T00:30:56.450Z,96.07
2023-04-21T00:33:40.895Z,95.95
2023-04-21T00:36:19.606Z,95.96
2023-04-21T00:39:19.254Z,95.88
2023-04-21T00:42:03.548Z,95.77
2023-04-21T00:45:10.003Z,96.23
2023-04-21T00:48:16.451Z,96.70
2023-04-21T00:51:13.854Z,97.47
2023-04-21T00:54:02.428Z,97.81
2023-04-21T00:57:12.587Z,97.91
2023-04-21T01:00:18.026Z,98.15
2023-04-21T01:03:42.201Z,98.14
2023-04-21T01:06:25.219Z,98.34
2023-04-21T01:09:09.515Z,98.46
2023-04-21T01:11:44.116Z,98.61
2023-04-21T01:14:26.905Z,98.92
2023-04-21T01:17:32.182Z,98.71
2023-04-21T01:20:22.982Z,98.88
2023-04-21T01:23:34.209Z,98.85
2023-04-21T01:26:15.288Z,98.95
2023-04-21T01:29:11.166Z,99.14
2023-04-21T01:32:11.758Z,99.17
2023-04-21T01:34:56.225Z,99.15
2023-04-21T01:38:04.948Z,99.31
2023-04-21T01:40:46.644Z,99.73
2023-04-21T01:43:55.724Z,100.00
2023-04-21T01:46:37.681Z,100.00
2023-04-21T01:49:19.429Z,100.00
2023-04-21T01:51:56.134Z,100.00
2023-04-21T01:54:54.610Z,100.00
2023-04-21T01:57:33.392Z,100.00
2023-04-21T02:00:15.352Z,100.00
2023-04-21T02:03:46.493Z,100.00
2023-04-21T02:06:34.936Z,100.00
2023-04-21T02:09:15.213Z,100.00
2023-04-21T02:12:39.302Z,100.00
2023-04-21T02:15:22.451Z,100.00
2023-04-21T02:18:16.937Z,100.00
2023-04-21T02:21:41.303Z,100.00
2023-04-21T02:24:19.974Z,100.00
2023-04-21T02:26:51.306Z,100.00
2023-04-21T02:29:30.618Z,100.00
2023-04-21T02:32:24.440Z,100.00
2023-04-21T02:35:26.252Z,100.00
2023-04-21T02:38:09.085Z,100.00
2023-04-21T02:40:44.726Z,100.00
2023-04-21T02:43:19.283Z,100.00
2023-04-21T02:46:13.678Z,100.00
2023-04-21T02:49:08.384Z,100.00
2023-04-21T02:51:55.742Z,100.00
2023-04-21T02:54:42.645Z,100.00
2023-04-21T02:57:17.693Z,100.00
2023-04-21T02:59:56.111Z,100.00
2023-04-21T03:03:05.705Z,100.00
2023-04-21T03:05:46.760Z,100.00
2023-04-21T03:09:04.222Z,100.00
2023-04-21T03:11:50.807Z,100.00
2023-04-21T03:14:31.325Z,100.00
2023-04-21T03:27:03.505Z,100.00
2023-04-21T03:29:32.993Z,100.00
2023-04-21T03:34:54.733Z,100.00
2023-04-21T03:37:24.443Z,100.00
2023-04-21T03:39:53.425Z,100.00
2023-04-21T03:42:22.078Z,100.00
2023-04-21T03:44:51.683Z,100.00
2023-04-21T03:47:20.720Z,100.00
2023-04-21T03:49:49.608Z,100.00
2023-04-21T03:52:18.341Z,100.00
2023-04-21T03:54:48.713Z,100.00
2023-04-21T03:57:17.361Z,100.00
2023-04-21T03:59:47.786Z,100.00
2023-04-21T04:02:17.383Z,100.00
2023-04-21T04:04:51.826Z,100.00
2023-04-21T04:07:20.652Z,100.00
2023-04-21T04:09:51.664Z,100.00
2023-04-21T04:12:28.555Z,100.00
2023-04-21T04:16:04.119Z,100.00
2023-04-21T04:18:57.127Z,100.00
2023-04-21T04:21:40.314Z,100.00
2023-04-21T04:24:52.289Z,100.00
2023-04-21T04:28:22.533Z,100.00
2023-04-21T04:35:14.916Z,100.00
2023-04-21T04:38:18.669Z,100.00
2023-04-21T04:41:14.915Z,100.00
2023-04-21T04:44:03.495Z,100.00
2023-04-21T04:47:17.352Z,100.00
2023-04-21T04:54:00.656Z,100.00
2023-04-21T05:06:07.663Z,100.00
2023-04-21T05:09:30.198Z,100.00
2023-04-21T05:19:47.006Z,100.00
2023-04-21T05:26:37.501Z,99.92
2023-04-21T05:34:14.560Z,99.20
2023-04-21T05:37:34.418Z,98.86
2023-04-21T05:40:55.250Z,98.35
2023-04-21T05:44:02.727Z,98.32
2023-04-21T05:48:08.320Z,97.93
2023-04-21T05:51:40.733Z,97.69
2023-04-21T05:55:47.950Z,97.74
2023-04-21T05:58:43.704Z,97.94
2023-04-21T06:01:57.018Z,97.73
2023-04-21T06:04:42.475Z,97.73
2023-04-21T06:13:06.948Z,98.29
2023-04-21T06:16:18.579Z,98.62
2023-04-21T06:19:40.831Z,98.61
2023-04-21T06:23:26.799Z,98.66
2023-04-21T06:26:22.010Z,98.97
2023-04-21T06:38:54.508Z,99.70
2023-04-21T06:46:07.260Z,100.00
2023-04-21T06:49:24.316Z,100.00
2023-04-21T07:02:15.233Z,100.00
2023-04-21T07:06:17.351Z,100.00
2023-04-21T07:10:00.930Z,100.00
2023-04-21T07:52:43.520Z,100.00
2023-04-21T08:00:12.221Z,100.00
2023-04-21T08:02:47.654Z,100.00
2023-04-21T08:11:33.029Z,100.00
2023-04-21T08:53:23.506Z,100.00
2023-04-21T08:57:36.623Z,100.00
2023-04-21T09:00:47.043Z,100.00
2023-04-21T09:14:11.922Z,100.00
2023-04-21T09:34:54.011Z,98.39
2023-04-21T10:34:29.404Z,96.31
2023-04-21T11:00:52.512Z,99.98
2023-04-21T12:27:40.954Z,90.66
2023-04-21T12:59:50.330Z,89.96
2023-04-21T13:48:29.359Z,87.34
2023-04-21T14:01:16.079Z,85.08
2023-04-21T14:05:17.111Z,85.20
2023-04-21T14:08:15.229Z,84.56
2023-04-21T14:43:35.031Z,85.52
2023-04-21T14:47:10.316Z,85.69
2023-04-21T14:54:10.607Z,85.41
2023-04-21T14:57:17.523Z,84.94
2023-04-21T15:01:30.397Z,84.15
2023-04-21T15:36:27.692Z,84.23
2023-04-21T15:39:06.762Z,83.80
2023-04-21T15:42:45.241Z,83.38
2023-04-21T15:46:36.503Z,83.42
2023-04-21T15:54:39.981Z,83.70
2023-04-21T16:22:18.571Z,82.83
2023-04-21T16:37:26.712Z,82.11
2023-04-21T16:40:22.114Z,81.92
2023-04-21T16:43:27.129Z,81.68
2023-04-21T16:51:42.074Z,81.49
2023-04-21T16:54:40.803Z,81.32
2023-04-21T16:57:32.399Z,81.22
2023-04-21T17:01:00.180Z,81.10
2023-04-21T17:04:03.750Z,80.91
2023-04-21T17:07:31.952Z,80.96
2023-04-21T17:10:23.533Z,80.73
2023-04-21T17:13:12.820Z,80.30
2023-04-21T17:15:56.788Z,80.30
2023-04-21T17:24:04.539Z,80.29
2023-04-21T17:27:21.785Z,80.53
2023-04-21T17:37:50.908Z,80.77
2023-04-21T17:41:28.394Z,80.92
2023-04-21T17:48:58.323Z,81.38
2023-04-21T17:57:19.145Z,81.97
2023-04-21T18:05:30.946Z,82.95
2023-04-21T18:12:57.475Z,83.51
2023-04-21T18:29:58.866Z,85.03
2023-04-21T18:38:33.571Z,84.96
2023-04-21T18:41:34.426Z,85.08
2023-04-21T18:44:27.064Z,85.10
2023-04-21T18:48:20.694Z,85.32
2023-04-21T18:52:12.852Z,85.10
2023-04-21T18:55:58.826Z,85.13
2023-04-21T18:58:53.265Z,85.21
2023-04-21T19:06:57.812Z,84.93
2023-04-21T19:10:59.123Z,84.65
2023-04-21T19:14:46.074Z,84.68
2023-04-21T19:18:05.607Z,84.75
2023-04-21T19:21:15.371Z,84.82
2023-04-21T19:24:12.137Z,85.01
2023-04-21T19:39:49.375Z,85.20
2023-04-21T19:43:30.660Z,85.23
2023-04-21T19:51:52.086Z,84.76
2023-04-21T19:54:56.811Z,84.15
2023-04-21T19:58:40.391Z,83.66
2023-04-21T20:02:50.817Z,82.74
2023-04-21T20:06:09.086Z,82.24
2023-04-21T20:09:48.789Z,81.95
2023-04-21T20:12:31.286Z,81.50
2023-04-21T20:18:48.910Z,81.03
2023-04-21T20:21:46.870Z,80.10
2023-04-21T20:24:37.080Z,79.62
2023-04-21T20:27:26.269Z,79.33
2023-04-21T20:30:40.837Z,79.64
2023-04-21T20:33:50.213Z,79.53
2023-04-21T20:36:36.784Z,79.63
2023-04-21T20:40:29.962Z,79.71
2023-04-21T20:47:43.588Z,79.09
2023-04-21T20:50:45.726Z,79.21
2023-04-21T20:54:39.652Z,79.38
2023-04-21T20:57:30.098Z,79.20
2023-04-21T21:00:28.308Z,79.16
2023-04-21T21:03:48.178Z,79.24
2023-04-21T21:06:45.647Z,79.34
2023-04-21T21:09:24.696Z,79.36
2023-04-21T21:12:31.325Z,79.23
2023-04-21T21:15:38.576Z,79.20
2023-04-21T21:19:35.100Z,79.51
2023-04-21T21:22:19.498Z,79.31
2023-04-21T21:29:55.890Z,78.86
2023-04-21T21:32:50.844Z,78.53
2023-04-21T21:36:16.616Z,78.19
2023-04-21T21:43:25.401Z,77.72
2023-04-21T21:46:22.462Z,77.54
2023-04-21T21:49:34.875Z,77.41
2023-04-21T22:01:28.529Z,76.97
2023-04-21T22:04:19.208Z,76.56
2023-04-21T22:07:16.139Z,76.15
2023-04-21T22:11:16.796Z,76.37
2023-04-21T22:14:56.699Z,76.21
2023-04-21T22:19:00.580Z,76.29
2023-04-21T22:22:13.677Z,76.58
2023-04-21T22:29:11.328Z,77.07
2023-04-21T22:32:15.204Z,77.37
2023-04-21T22:34:53.583Z,77.81
2023-04-21T22:37:43.736Z,77.72
2023-04-21T22:40:44.686Z,77.68
2023-04-21T22:43:31.290Z,77.67
2023-04-21T22:50:18.274Z,77.76
2023-04-21T22:53:39.247Z,78.01
2023-04-21T22:56:44.106Z,78.04
2023-04-21T22:59:33.472Z,78.36
2023-04-21T23:02:05.531Z,78.75
2023-04-21T23:04:39.909Z,78.76
2023-04-21T23:08:16.638Z,78.69
2023-04-21T23:10:50.872Z,78.43
2023-04-21T23:14:11.292Z,78.34
2023-04-21T23:16:57.486Z,78.66
2023-04-21T23:20:29.658Z,78.46
2023-04-21T23:23:07.822Z,78.39
2023-04-21T23:25:43.158Z,78.07
2023-04-21T23:29:28.135Z,77.85
2023-04-21T23:32:07.811Z,77.58
2023-04-21T23:35:00.581Z,77.32
2023-04-21T23:37:31.207Z,77.22
2023-04-21T23:40:15.818Z,76.87
2023-04-21T23:43:37.556Z,76.64
2023-04-21T23:47:12.693Z,76.31
2023-04-21T23:49:57.329Z,76.13
2023-04-21T23:53:22.680Z,76.23
2023-04-21T23:56:19.032Z,75.74
2023-04-21T23:59:54.826Z,75.53
